sensor_id;sensor_type;location;lat;lon;timestamp;pressure;altitude;pressure_sealevel;temperature;humidity
57442;BME280;43284;47.042;15.498;2023-04-01T00:00:59;95904.59;;;6.51;100.00
57442;BME280;43284;47.042;15.498;2023-04-01T00:03:26;95906.59;;;6.46;100.00
57442;BME280;43284;47.042;15.498;2023-04-01T00:05:56;95899.75;;;6.45;100.00
57442;BME280;43284;47.042;15.498;2023-04-01T00:08:23;95893.69;;;6.45;100.00
57442;BME280;43284;47.042;15.498;2023-04-01T00:10:49;95902.25;;;6.47;100.00
57442;BME280;43284;47.042;15.498;2023-04-01T00:13:15;95897.16;;;6.45;100.00
57442;BME280;43284;47.042;15.498;2023-04-01T00:15:41;95905.00;;;6.44;100.00
57442;BME280;43284;47.042;15.498;2023-04-01T00:18:07;95894.13;;;6.37;100.00
57442;BME280;43284;47.042;15.498;2023-04-01T00:20:34;95889.06;;;6.34;100.00
57442;BME280;43284;47.042;15.498;2023-04-01T00:22:59;95892.44;;;6.36;100.00
57442;BME280;43284;47.042;15.498;2023-04-01T00:25:25;95892.53;;;6.34;100.00
57442;BME280;43284;47.042;15.498;2023-04-01T00:27:51;95877.94;;;6.32;100.00
57442;BME280;43284;47.042;15.498;2023-04-01T00:30:17;95879.78;;;6.30;100.00
57442;BME280;43284;47.042;15.498;2023-04-01T00:32:43;95876.44;;;6.28;100.00
57442;BME280;43284;47.042;15.498;2023-04-01T00:35:08;95886.81;;;6.28;100.00
57442;BME280;43284;47.042;15.498;2023-04-01T00:37:36;95877.34;;;6.27;100.00
57442;BME280;43284;47.042;15.498;2023-04-01T00:40:04;95875.75;;;6.24;100.00
57442;BME280;43284;47.042;15.498;2023-04-01T00:42:30;95864.53;;;6.24;100.00
57442;BME280;43284;47.042;15.498;2023-04-01T00:44:56;95873.53;;;6.16;100.00
57442;BME280;43284;47.042;15.498;2023-04-01T00:47:23;95865.22;;;6.10;100.00
57442;BME280;43284;47.042;15.498;2023-04-01T00:49:51;95867.84;;;6.10;100.00
57442;BME280;43284;47.042;15.498;2023-04-01T00:52:22;95861.75;;;6.11;100.00
57442;BME280;43284;47.042;15.498;2023-04-01T00:54:51;95855.88;;;6.07;100.00
57442;BME280;43284;47.042;15.498;2023-04-01T00:57:30;95860.91;;;6.10;100.00
57442;BME280;43284;47.042;15.498;2023-04-01T00:59:56;95859.22;;;6.09;100.00
57442;BME280;43284;47.042;15.498;2023-04-01T01:02:23;95859.16;;;6.11;100.00
57442;BME280;43284;47.042;15.498;2023-04-01T01:04:48;95849.66;;;6.10;100.00
57442;BME280;43284;47.042;15.498;2023-04-01T01:07:25;95834.97;;;6.10;100.00
57442;BME280;43284;47.042;15.498;2023-04-01T01:10:10;95833.19;;;6.11;100.00
57442;BME280;43284;47.042;15.498;2023-04-01T01:13:09;95837.63;;;6.09;100.00
57442;BME280;43284;47.042;15.498;2023-04-01T01:15:44;95836.53;;;5.97;99.44
57442;BME280;43284;47.042;15.498;2023-04-01T01:18:49;95834.91;;;5.94;100.00
57442;BME280;43284;47.042;15.498;2023-04-01T01:21:20;95838.56;;;5.90;100.00
57442;BME280;43284;47.042;15.498;2023-04-01T01:26:55;95835.34;;;5.85;100.00
57442;BME280;43284;47.042;15.498;2023-04-01T01:37:12;95834.53;;;5.67;99.25
57442;BME280;43284;47.042;15.498;2023-04-01T01:39:39;95825.94;;;5.67;99.81
57442;BME280;43284;47.042;15.498;2023-04-01T01:42:10;95827.75;;;5.65;100.00
57442;BME280;43284;47.042;15.498;2023-04-01T01:44:38;95823.34;;;5.67;100.00
57442;BME280;43284;47.042;15.498;2023-04-01T01:47:05;95821.66;;;5.66;100.00
57442;BME280;43284;47.042;15.498;2023-04-01T01:49:33;95813.03;;;5.65;100.00
57442;BME280;43284;47.042;15.498;2023-04-01T01:51:59;95818.91;;;5.69;100.00
57442;BME280;43284;47.042;15.498;2023-04-01T01:54:25;95817.16;;;5.69;100.00
57442;BME280;43284;47.042;15.498;2023-04-01T01:56:53;95813.88;;;5.66;100.00
57442;BME280;43284;47.042;15.498;2023-04-01T01:59:22;95803.59;;;5.47;98.94
57442;BME280;43284;47.042;15.498;2023-04-01T02:01:51;95799.25;;;5.47;99.90
57442;BME280;43284;47.042;15.498;2023-04-01T02:04:19;95791.47;;;5.47;100.00
57442;BME280;43284;47.042;15.498;2023-04-01T02:07:07;95790.56;;;5.48;100.00
57442;BME280;43284;47.042;15.498;2023-04-01T02:09:36;95793.84;;;5.52;100.00
57442;BME280;43284;47.042;15.498;2023-04-01T02:12:07;95794.66;;;5.52;100.00
57442;BME280;43284;47.042;15.498;2023-04-01T02:14:45;95799.03;;;5.52;100.00
57442;BME280;43284;47.042;15.498;2023-04-01T02:17:18;95802.44;;;5.35;99.55
57442;BME280;43284;47.042;15.498;2023-04-01T02:19:50;95802.69;;;5.13;98.18
57442;BME280;43284;47.042;15.498;2023-04-01T02:22:23;95801.84;;;5.12;99.65
57442;BME280;43284;47.042;15.498;2023-04-01T02:24:52;95793.91;;;5.15;100.00
57442;BME280;43284;47.042;15.498;2023-04-01T02:27:19;95784.94;;;5.23;100.00
57442;BME280;43284;47.042;15.498;2023-04-01T02:29:45;95789.13;;;5.25;100.00
57442;BME280;43284;47.042;15.498;2023-04-01T02:32:12;95800.25;;;5.27;100.00
57442;BME280;43284;47.042;15.498;2023-04-01T02:34:40;95801.44;;;5.20;100.00
57442;BME280;43284;47.042;15.498;2023-04-01T02:37:06;95807.63;;;5.18;100.00
57442;BME280;43284;47.042;15.498;2023-04-01T02:39:31;95806.03;;;5.15;100.00
57442;BME280;43284;47.042;15.498;2023-04-01T02:41:58;95814.31;;;5.04;99.62
57442;BME280;43284;47.042;15.498;2023-04-01T02:44:24;95818.06;;;4.99;99.69
57442;BME280;43284;47.042;15.498;2023-04-01T02:46:49;95830.16;;;4.98;100.00
57442;BME280;43284;47.042;15.498;2023-04-01T02:49:15;95820.00;;;4.93;100.00
57442;BME280;43284;47.042;15.498;2023-04-01T02:51:40;95818.06;;;4.99;100.00
57442;BME280;43284;47.042;15.498;2023-04-01T02:54:06;95817.84;;;5.03;100.00
57442;BME280;43284;47.042;15.498;2023-04-01T02:56:31;95816.22;;;5.01;100.00
57442;BME280;43284;47.042;15.498;2023-04-01T02:58:57;95821.31;;;5.02;100.00
57442;BME280;43284;47.042;15.498;2023-04-01T03:01:22;95814.53;;;5.00;100.00
57442;BME280;43284;47.042;15.498;2023-04-01T03:03:48;95822.16;;;5.03;100.00
57442;BME280;43284;47.042;15.498;2023-04-01T03:06:15;95817.75;;;5.05;100.00
57442;BME280;43284;47.042;15.498;2023-04-01T03:08:41;95812.72;;;5.02;100.00
57442;BME280;43284;47.042;15.498;2023-04-01T03:11:07;95818.06;;;4.99;100.00
57442;BME280;43284;47.042;15.498;2023-04-01T03:13:33;95819.56;;;5.03;100.00
57442;BME280;43284;47.042;15.498;2023-04-01T03:16:00;95810.91;;;5.04;100.00
57442;BME280;43284;47.042;15.498;2023-04-01T03:18:25;95817.69;;;5.06;100.00
57442;BME280;43284;47.042;15.498;2023-04-01T03:20:51;95826.22;;;5.08;100.00
57442;BME280;43284;47.042;15.498;2023-04-01T03:23:17;95832.06;;;4.94;99.90
57442;BME280;43284;47.042;15.498;2023-04-01T03:25:45;95831.28;;;4.92;100.00
57442;BME280;43284;47.042;15.498;2023-04-01T03:28:10;95828.94;;;4.88;100.00
57442;BME280;43284;47.042;15.498;2023-04-01T03:30:37;95833.56;;;4.81;100.00
57442;BME280;43284;47.042;15.498;2023-04-01T03:33:03;95838.75;;;4.81;100.00
57442;BME280;43284;47.042;15.498;2023-04-01T03:35:28;95846.28;;;4.86;100.00
57442;BME280;43284;47.042;15.498;2023-04-01T03:37:54;95843.47;;;4.90;100.00
57442;BME280;43284;47.042;15.498;2023-04-01T03:40:21;95842.50;;;4.93;100.00
57442;BME280;43284;47.042;15.498;2023-04-01T03:42:47;95846.53;;;4.99;100.00
57442;BME280;43284;47.042;15.498;2023-04-01T03:45:12;95856.13;;;4.97;100.00
57442;BME280;43284;47.042;15.498;2023-04-01T03:47:39;95860.69;;;4.91;100.00
57442;BME280;43284;47.042;15.498;2023-04-01T03:50:06;95862.38;;;4.92;100.00
57442;BME280;43284;47.042;15.498;2023-04-01T03:52:33;95856.38;;;4.92;100.00
57442;BME280;43284;47.042;15.498;2023-04-01T03:54:58;95850.41;;;4.90;100.00
57442;BME280;43284;47.042;15.498;2023-04-01T03:57:24;95860.84;;;4.88;100.00
57442;BME280;43284;47.042;15.498;2023-04-01T03:59:50;95853.91;;;4.89;100.00
57442;BME280;43284;47.042;15.498;2023-04-01T04:02:15;95859.00;;;4.90;100.00
57442;BME280;43284;47.042;15.498;2023-04-01T04:04:41;95853.69;;;4.93;100.00
57442;BME280;43284;47.042;15.498;2023-04-01T04:07:07;95853.69;;;4.93;100.00
57442;BME280;43284;47.042;15.498;2023-04-01T04:09:32;95853.69;;;4.93;100.00
57442;BME280;43284;47.042;15.498;2023-04-01T04:11:58;95858.09;;;4.91;100.00
57442;BME280;43284;47.042;15.498;2023-04-01T04:14:24;95866.78;;;4.90;100.00
57442;BME280;43284;47.042;15.498;2023-04-01T04:16:50;95868.44;;;4.91;100.00
57442;BME280;43284;47.042;15.498;2023-04-01T04:19:15;95861.59;;;4.90;100.00
57442;BME280;43284;47.042;15.498;2023-04-01T04:21:41;95861.59;;;4.90;100.00
57442;BME280;43284;47.042;15.498;2023-04-01T04:24:07;95858.38;;;4.85;100.00
57442;BME280;43284;47.042;15.498;2023-04-01T04:26:33;95859.22;;;4.86;100.00
57442;BME280;43284;47.042;15.498;2023-04-01T04:28:59;95869.38;;;4.90;100.00
57442;BME280;43284;47.042;15.498;2023-04-01T04:31:25;95872.41;;;4.81;100.00
57442;BME280;43284;47.042;15.498;2023-04-01T04:33:52;95867.22;;;4.81;100.00
57442;BME280;43284;47.042;15.498;2023-04-01T04:36:18;95862.16;;;4.78;100.00
57442;BME280;43284;47.042;15.498;2023-04-01T04:38:44;95867.56;;;4.73;100.00
57442;BME280;43284;47.042;15.498;2023-04-01T04:41:11;95862.22;;;4.77;100.00
57442;BME280;43284;47.042;15.498;2023-04-01T04:43:38;95862.09;;;4.80;100.00
57442;BME280;43284;47.042;15.498;2023-04-01T04:46:06;95866.22;;;4.84;100.00
57442;BME280;43284;47.042;15.498;2023-04-01T04:48:32;95863.53;;;4.85;100.00
57442;BME280;43284;47.042;15.498;2023-04-01T04:50:57;95860.06;;;4.86;100.00
57442;BME280;43284;47.042;15.498;2023-04-01T04:53:23;95853.06;;;4.88;100.00
57442;BME280;43284;47.042;15.498;2023-04-01T04:55:50;95847.72;;;4.91;100.00
57442;BME280;43284;47.042;15.498;2023-04-01T04:58:16;95854.50;;;4.94;100.00
57442;BME280;43284;47.042;15.498;2023-04-01T05:00:43;95848.44;;;4.95;100.00
57442;BME280;43284;47.042;15.498;2023-04-01T05:03:09;95853.78;;;4.92;100.00
57442;BME280;43284;47.042;15.498;2023-04-01T05:05:35;95857.47;;;4.86;100.00
57442;BME280;43284;47.042;15.498;2023-04-01T05:08:01;95853.84;;;4.90;100.00
57442;BME280;43284;47.042;15.498;2023-04-01T05:10:26;95852.84;;;4.93;100.00
57442;BME280;43284;47.042;15.498;2023-04-01T05:12:52;95855.22;;;4.98;100.00
57442;BME280;43284;47.042;15.498;2023-04-01T05:15:18;95860.22;;;5.01;100.00
57442;BME280;43284;47.042;15.498;2023-04-01T05:17:43;95860.94;;;5.04;100.00
57442;BME280;43284;47.042;15.498;2023-04-01T05:20:11;95862.28;;;4.94;100.00
57442;BME280;43284;47.042;15.498;2023-04-01T05:22:37;95860.31;;;4.99;100.00
57442;BME280;43284;47.042;15.498;2023-04-01T05:25:03;95870.59;;;5.01;100.00
57442;BME280;43284;47.042;15.498;2023-04-01T05:27:29;95864.53;;;5.02;100.00
57442;BME280;43284;47.042;15.498;2023-04-01T05:29:54;95860.88;;;5.06;100.00
57442;BME280;43284;47.042;15.498;2023-04-01T05:32:20;95860.81;;;5.07;100.00
57442;BME280;43284;47.042;15.498;2023-04-01T05:34:45;95866.53;;;5.14;100.00
57442;BME280;43284;47.042;15.498;2023-04-01T05:37:11;95872.31;;;5.19;100.00
57442;BME280;43284;47.042;15.498;2023-04-01T05:39:37;95875.69;;;5.21;100.00
57442;BME280;43284;47.042;15.498;2023-04-01T05:42:05;95870.50;;;5.21;100.00
57442;BME280;43284;47.042;15.498;2023-04-01T05:44:31;95865.25;;;5.23;100.00
57442;BME280;43284;47.042;15.498;2023-04-01T05:46:56;95872.81;;;5.27;100.00
57442;BME280;43284;47.042;15.498;2023-04-01T05:49:22;95869.97;;;5.32;100.00
57442;BME280;43284;47.042;15.498;2023-04-01T05:51:48;95874.16;;;5.34;100.00
57442;BME280;43284;47.042;15.498;2023-04-01T05:54:13;95872.13;;;5.41;100.00
57442;BME280;43284;47.042;15.498;2023-04-01T05:56:39;95869.38;;;5.44;100.00
57442;BME280;43284;47.042;15.498;2023-04-01T05:59:04;95877.84;;;5.48;100.00
57442;BME280;43284;47.042;15.498;2023-04-01T06:01:30;95874.19;;;5.52;100.00
57442;BME280;43284;47.042;15.498;2023-04-01T06:03:55;95874.78;;;5.57;100.00
57442;BME280;43284;47.042;15.498;2023-04-01T06:06:28;95872.81;;;5.62;100.00
57442;BME280;43284;47.042;15.498;2023-04-01T06:08:56;95860.47;;;5.67;100.00
57442;BME280;43284;47.042;15.498;2023-04-01T06:19:47;95862.22;;;5.84;100.00
57442;BME280;43284;47.042;15.498;2023-04-01T06:22:34;95873.94;;;5.91;100.00
57442;BME280;43284;47.042;15.498;2023-04-01T06:25:18;95874.56;;;5.96;100.00
57442;BME280;43284;47.042;15.498;2023-04-01T06:28:07;95870.53;;;6.08;100.00
57442;BME280;43284;47.042;15.498;2023-04-01T06:55:05;95879.09;;;6.75;100.00
57442;BME280;43284;47.042;15.498;2023-04-01T06:57:48;95886.41;;;6.85;100.00
57442;BME280;43284;47.042;15.498;2023-04-01T07:00:29;95886.78;;;6.93;100.00
57442;BME280;43284;47.042;15.498;2023-04-01T07:03:43;95898.13;;;7.08;100.00
57442;BME280;43284;47.042;15.498;2023-04-01T07:06:16;95896.69;;;7.18;100.00
57442;BME280;43284;47.042;15.498;2023-04-01T07:08:46;95903.22;;;7.25;100.00
57442;BME280;43284;47.042;15.498;2023-04-01T07:11:24;95898.84;;;7.41;100.00
57442;BME280;43284;47.042;15.498;2023-04-01T07:16:58;95903.34;;;7.54;98.32
57442;BME280;43284;47.042;15.498;2023-04-01T07:19:50;95910.38;;;7.68;98.19
57442;BME280;43284;47.042;15.498;2023-04-01T07:22:31;95908.16;;;7.76;96.67
57442;BME280;43284;47.042;15.498;2023-04-01T07:25:02;95913.13;;;7.95;93.36
57442;BME280;43284;47.042;15.498;2023-04-01T07:27:30;95910.94;;;8.03;91.96
57442;BME280;43284;47.042;15.498;2023-04-01T07:29:56;95914.91;;;8.09;90.79
57442;BME280;43284;47.042;15.498;2023-04-01T07:32:44;95912.72;;;8.17;90.25
57442;BME280;43284;47.042;15.498;2023-04-01T07:35:20;95911.69;;;8.19;88.44
57442;BME280;43284;47.042;15.498;2023-04-01T07:43:40;95910.97;;;8.32;84.99
57442;BME280;43284;47.042;15.498;2023-04-01T07:57:09;95909.13;;;8.48;83.66
57442;BME280;43284;47.042;15.498;2023-04-01T08:07:45;95922.38;;;8.59;82.38
57442;BME280;43284;47.042;15.498;2023-04-01T08:12:43;95921.59;;;8.72;83.67
57442;BME280;43284;47.042;15.498;2023-04-01T08:15:55;95919.00;;;8.72;81.97
57442;BME280;43284;47.042;15.498;2023-04-01T08:21:21;95921.50;;;9.02;82.77
57442;BME280;43284;47.042;15.498;2023-04-01T08:23:52;95920.16;;;9.09;80.41
57442;BME280;43284;47.042;15.498;2023-04-01T08:29:00;95914.78;;;9.39;79.71
57442;BME280;43284;47.042;15.498;2023-04-01T08:34:01;95920.41;;;9.60;77.58
57442;BME280;43284;47.042;15.498;2023-04-01T08:36:36;95916.69;;;9.77;77.47
57442;BME280;43284;47.042;15.498;2023-04-01T08:39:06;95917.56;;;9.90;75.19
57442;BME280;43284;47.042;15.498;2023-04-01T08:44:41;95921.81;;;10.31;74.76
57442;BME280;43284;47.042;15.498;2023-04-01T08:50:57;95922.78;;;10.56;71.78
57442;BME280;43284;47.042;15.498;2023-04-01T08:53:35;95920.78;;;10.72;70.41
57442;BME280;43284;47.042;15.498;2023-04-01T09:18:49;95927.66;;;11.36;68.39
57442;BME280;43284;47.042;15.498;2023-04-01T09:21:46;95934.97;;;11.44;67.32
57442;BME280;43284;47.042;15.498;2023-04-01T09:27:28;95934.59;;;11.61;67.84
57442;BME280;43284;47.042;15.498;2023-04-01T09:30:13;95926.88;;;11.71;66.30
57442;BME280;43284;47.042;15.498;2023-04-01T09:35:48;95938.53;;;11.91;65.98
57442;BME280;43284;47.042;15.498;2023-04-01T09:41:40;95934.25;;;12.25;62.69
57442;BME280;43284;47.042;15.498;2023-04-01T09:44:29;95943.31;;;12.32;65.62
57442;BME280;43284;47.042;15.498;2023-04-01T09:47:01;95930.47;;;12.29;60.00
57442;BME280;43284;47.042;15.498;2023-04-01T09:49:55;95940.50;;;12.35;62.34
57442;BME280;43284;47.042;15.498;2023-04-01T10:07:58;95934.00;;;12.97;58.24
57442;BME280;43284;47.042;15.498;2023-04-01T10:22:06;95932.78;;;13.02;53.73
57442;BME280;43284;47.042;15.498;2023-04-01T11:25:50;95921.13;;;14.04;44.22
57442;BME280;43284;47.042;15.498;2023-04-01T11:31:25;95919.00;;;14.19;43.84
57442;BME280;43284;47.042;15.498;2023-04-01T11:34:20;95916.38;;;14.19;42.61
57442;BME280;43284;47.042;15.498;2023-04-01T11:39:43;95916.06;;;14.12;43.90
57442;BME280;43284;47.042;15.498;2023-04-01T12:08:04;95919.56;;;14.55;43.40
57442;BME280;43284;47.042;15.498;2023-04-01T12:11:05;95907.94;;;14.57;43.06
57442;BME280;43284;47.042;15.498;2023-04-01T12:13:43;95915.22;;;14.54;41.72
57442;BME280;43284;47.042;15.498;2023-04-01T12:16:29;95916.03;;;14.66;41.08
57442;BME280;43284;47.042;15.498;2023-04-01T12:37:35;95917.16;;;15.03;38.86
57442;BME280;43284;47.042;15.498;2023-04-01T12:43:27;95908.53;;;14.92;42.51
57442;BME280;43284;47.042;15.498;2023-04-01T12:46:26;95913.22;;;14.88;39.64
57442;BME280;43284;47.042;15.498;2023-04-01T12:57:10;95901.34;;;14.94;41.77
57442;BME280;43284;47.042;15.498;2023-04-01T13:11:14;95875.88;;;14.63;38.40
57442;BME280;43284;47.042;15.498;2023-04-01T13:16:36;95870.59;;;14.63;40.35
57442;BME280;43284;47.042;15.498;2023-04-01T13:22:15;95866.94;;;14.76;39.97
57442;BME280;43284;47.042;15.498;2023-04-01T13:27:30;95870.34;;;14.67;39.64
57442;BME280;43284;47.042;15.498;2023-04-01T13:30:26;95873.81;;;14.67;38.36
57442;BME280;43284;47.042;15.498;2023-04-01T13:33:06;95866.75;;;14.68;38.36
57442;BME280;43284;47.042;15.498;2023-04-01T13:35:43;95868.41;;;14.69;38.16
57442;BME280;43284;47.042;15.498;2023-04-01T13:40:51;95873.06;;;14.55;37.25
57442;BME280;43284;47.042;15.498;2023-04-01T13:43:28;95870.63;;;14.73;37.62
57442;BME280;43284;47.042;15.498;2023-04-01T13:46:15;95870.94;;;14.80;38.90
57442;BME280;43284;47.042;15.498;2023-04-01T13:49:07;95864.91;;;14.99;37.87
57442;BME280;43284;47.042;15.498;2023-04-01T14:13:43;95833.59;;;15.85;36.23
57442;BME280;43284;47.042;15.498;2023-04-01T14:16:55;95825.97;;;15.82;34.94
57442;BME280;43284;47.042;15.498;2023-04-01T14:28:28;95822.47;;;16.11;34.88
57442;BME280;43284;47.042;15.498;2023-04-01T14:34:18;95817.78;;;15.85;33.76
57442;BME280;43284;47.042;15.498;2023-04-01T14:45:36;95814.56;;;16.20;33.03
57442;BME280;43284;47.042;15.498;2023-04-01T14:51:03;95808.56;;;16.28;32.04
57442;BME280;43284;47.042;15.498;2023-04-01T14:53:36;95807.03;;;16.16;33.32
57442;BME280;43284;47.042;15.498;2023-04-01T14:56:04;95807.22;;;16.14;34.24
57442;BME280;43284;47.042;15.498;2023-04-01T14:58:59;95808.44;;;16.20;32.57
57442;BME280;43284;47.042;15.498;2023-04-01T15:01:37;95804.53;;;16.24;33.08
57442;BME280;43284;47.042;15.498;2023-04-01T15:15:13;95796.19;;;16.66;34.67
57442;BME280;43284;47.042;15.498;2023-04-01T15:17:48;95797.66;;;16.78;35.70
57442;BME280;43284;47.042;15.498;2023-04-01T15:20:45;95792.53;;;16.86;33.73
57442;BME280;43284;47.042;15.498;2023-04-01T15:33:28;95799.69;;;17.40;32.08
57442;BME280;43284;47.042;15.498;2023-04-01T15:38:53;95794.03;;;17.35;31.37
57442;BME280;43284;47.042;15.498;2023-04-01T15:41:38;95798.00;;;18.10;30.97
57442;BME280;43284;47.042;15.498;2023-04-01T15:44:48;95786.78;;;18.43;30.78
57442;BME280;43284;47.042;15.498;2023-04-01T15:50:42;95796.44;;;17.64;31.68
57442;BME280;43284;47.042;15.498;2023-04-01T15:56:43;95798.16;;;17.73;32.08
57442;BME280;43284;47.042;15.498;2023-04-01T16:02:27;95799.22;;;17.98;30.02
57442;BME280;43284;47.042;15.498;2023-04-01T16:05:27;95808.84;;;17.45;30.95
57442;BME280;43284;47.042;15.498;2023-04-01T16:21:52;95812.31;;;16.63;34.13
57442;BME280;43284;47.042;15.498;2023-04-01T16:30:37;95820.66;;;16.11;37.31
57442;BME280;43284;47.042;15.498;2023-04-01T16:41:46;95818.84;;;15.43;41.50
57442;BME280;43284;47.042;15.498;2023-04-01T16:44:25;95830.22;;;15.24;41.29
57442;BME280;43284;47.042;15.498;2023-04-01T16:49:39;95833.69;;;14.84;42.68
57442;BME280;43284;47.042;15.498;2023-04-01T16:54:55;95843.59;;;14.40;42.18
57442;BME280;43284;47.042;15.498;2023-04-01T16:57:46;95848.22;;;14.27;42.93
57442;BME280;43284;47.042;15.498;2023-04-01T17:00:21;95853.03;;;14.01;42.64
57442;BME280;43284;47.042;15.498;2023-04-01T17:03:04;95860.06;;;13.91;42.56
57442;BME280;43284;47.042;15.498;2023-04-01T17:05:37;95863.56;;;13.80;44.70
57442;BME280;43284;47.042;15.498;2023-04-01T17:08:22;95868.97;;;13.67;47.12
57442;BME280;43284;47.042;15.498;2023-04-01T17:13:38;95876.84;;;13.35;47.21
57442;BME280;43284;47.042;15.498;2023-04-01T17:16:27;95883.63;;;13.26;47.81
57442;BME280;43284;47.042;15.498;2023-04-01T17:22:04;95890.72;;;13.03;47.37
57442;BME280;43284;47.042;15.498;2023-04-01T17:35:31;95921.69;;;12.53;51.25
57442;BME280;43284;47.042;15.498;2023-04-01T17:40:57;95921.44;;;12.56;49.62
57442;BME280;43284;47.042;15.498;2023-04-01T17:46:10;95938.00;;;12.45;51.85
57442;BME280;43284;47.042;15.498;2023-04-01T17:51:52;95947.50;;;12.35;54.28
57442;BME280;43284;47.042;15.498;2023-04-01T17:56:58;95951.97;;;12.22;58.01
57442;BME280;43284;47.042;15.498;2023-04-01T17:59:44;95959.69;;;12.12;56.89
57442;BME280;43284;47.042;15.498;2023-04-01T18:02:25;95963.22;;;12.00;54.41
57442;BME280;43284;47.042;15.498;2023-04-01T18:05:35;95971.38;;;11.71;55.70
57442;BME280;43284;47.042;15.498;2023-04-01T18:08:13;95972.13;;;11.73;54.55
57442;BME280;43284;47.042;15.498;2023-04-01T18:10:55;95967.53;;;11.64;54.38
57442;BME280;43284;47.042;15.498;2023-04-01T18:13:32;95974.88;;;11.59;55.11
57442;BME280;43284;47.042;15.498;2023-04-01T18:16:29;95985.56;;;11.55;55.19
57442;BME280;43284;47.042;15.498;2023-04-01T18:19:11;95983.28;;;11.51;55.23
57442;BME280;43284;47.042;15.498;2023-04-01T18:21:45;95989.06;;;11.43;56.89
57442;BME280;43284;47.042;15.498;2023-04-01T18:24:42;96003.41;;;11.38;54.91
57442;BME280;43284;47.042;15.498;2023-04-01T18:27:33;96016.75;;;11.22;54.62
57442;BME280;43284;47.042;15.498;2023-04-01T18:30:15;96021.75;;;11.25;53.30
57442;BME280;43284;47.042;15.498;2023-04-01T18:47:05;96038.09;;;11.28;54.91
57442;BME280;43284;47.042;15.498;2023-04-01T18:49:59;96037.03;;;11.18;56.95
57442;BME280;43284;47.042;15.498;2023-04-01T18:52:33;96046.88;;;11.14;56.13
57442;BME280;43284;47.042;15.498;2023-04-01T18:57:53;96058.28;;;11.13;57.43
57442;BME280;43284;47.042;15.498;2023-04-01T19:00:33;96056.00;;;11.09;58.77
57442;BME280;43284;47.042;15.498;2023-04-01T19:03:11;96067.06;;;11.12;58.13
57442;BME280;43284;47.042;15.498;2023-04-01T19:05:42;96076.03;;;11.08;61.42
57442;BME280;43284;47.042;15.498;2023-04-01T19:08:28;96076.69;;;10.99;64.84
57442;BME280;43284;47.042;15.498;2023-04-01T19:11:09;96079.66;;;10.55;65.13
57442;BME280;43284;47.042;15.498;2023-04-01T19:14:05;96082.03;;;10.45;66.47
57442;BME280;43284;47.042;15.498;2023-04-01T19:17:00;96093.03;;;10.50;67.58
57442;BME280;43284;47.042;15.498;2023-04-01T19:19:51;96091.84;;;10.41;67.87
57442;BME280;43284;47.042;15.498;2023-04-01T19:25:19;96103.09;;;10.29;69.62
57442;BME280;43284;47.042;15.498;2023-04-01T19:30:51;96108.31;;;10.29;65.75
57442;BME280;43284;47.042;15.498;2023-04-01T19:36:19;96100.75;;;10.24;66.61
57442;BME280;43284;47.042;15.498;2023-04-01T19:44:26;96107.75;;;10.24;66.54
57442;BME280;43284;47.042;15.498;2023-04-01T19:49:59;96110.97;;;10.27;66.01
57442;BME280;43284;47.042;15.498;2023-04-01T19:52:31;96114.75;;;10.23;67.32
57442;BME280;43284;47.042;15.498;2023-04-01T20:00:43;96119.78;;;10.12;69.02
57442;BME280;43284;47.042;15.498;2023-04-01T20:03:28;96120.09;;;10.07;65.83
57442;BME280;43284;47.042;15.498;2023-04-01T20:06:43;96123.56;;;10.08;67.17
57442;BME280;43284;47.042;15.498;2023-04-01T20:12:05;96123.81;;;10.03;68.37
57442;BME280;43284;47.042;15.498;2023-04-01T20:14:46;96125.59;;;10.03;69.67
57442;BME280;43284;47.042;15.498;2023-04-01T20:18:01;96126.28;;;9.92;69.44
57442;BME280;43284;47.042;15.498;2023-04-01T20:25:18;96142.16;;;9.89;70.98
57442;BME280;43284;47.042;15.498;2023-04-01T20:28:01;96141.41;;;9.87;69.72
57442;BME280;43284;47.042;15.498;2023-04-01T20:36:15;96147.56;;;9.72;68.47
57442;BME280;43284;47.042;15.498;2023-04-01T20:53:20;96168.31;;;9.44;70.41
57442;BME280;43284;47.042;15.498;2023-04-01T20:58:32;96172.03;;;9.26;69.16
57442;BME280;43284;47.042;15.498;2023-04-01T21:17:16;96207.13;;;9.20;70.38
57442;BME280;43284;47.042;15.498;2023-04-01T21:20:12;96208.50;;;9.12;71.54
57442;BME280;43284;47.042;15.498;2023-04-01T21:23:12;96209.25;;;9.14;72.36
57442;BME280;43284;47.042;15.498;2023-04-01T21:25:55;96212.06;;;9.11;72.43
57442;BME280;43284;47.042;15.498;2023-04-01T21:34:42;96225.44;;;9.04;73.05
57442;BME280;43284;47.042;15.498;2023-04-01T21:41:05;96221.94;;;9.05;73.35
57442;BME280;43284;47.042;15.498;2023-04-01T21:47:08;96222.84;;;9.04;73.90
57442;BME280;43284;47.042;15.498;2023-04-01T22:08:51;96235.75;;;8.76;76.56
57442;BME280;43284;47.042;15.498;2023-04-01T22:11:34;96236.94;;;8.70;76.67
57442;BME280;43284;47.042;15.498;2023-04-01T22:17:06;96234.69;;;8.64;77.65
57442;BME280;43284;47.042;15.498;2023-04-01T22:25:16;96242.28;;;8.53;76.46
57442;BME280;43284;47.042;15.498;2023-04-01T22:27:54;96251.25;;;8.47;76.03
57442;BME280;43284;47.042;15.498;2023-04-01T22:32:51;96251.13;;;8.33;75.67
57442;BME280;43284;47.042;15.498;2023-04-01T22:35:40;96257.25;;;8.32;75.91
57442;BME280;43284;47.042;15.498;2023-04-01T22:43:37;96257.31;;;8.14;76.90
57442;BME280;43284;47.042;15.498;2023-04-01T22:48:45;96259.09;;;8.14;77.72
57442;BME280;43284;47.042;15.498;2023-04-01T22:51:24;96256.50;;;8.14;77.97
57442;BME280;43284;47.042;15.498;2023-04-01T22:53:59;96262.75;;;7.94;78.47
57442;BME280;43284;47.042;15.498;2023-04-01T22:56:36;96263.28;;;8.00;77.86
57442;BME280;43284;47.042;15.498;2023-04-01T23:01:49;96264.59;;;7.92;78.92
57442;BME280;43284;47.042;15.498;2023-04-01T23:04:23;96259.78;;;7.84;80.09